Time;durP1;ratioP1;P1;durP2;ratioP2;P2;SDS_P1;SDS_P2;PMS_P1;PMS_P2;Temp;Humidity;BMP_temperature;BMP_pressure;BME280_temperature;BME280_humidity;BME280_pressure;Samples;Min_cycle;Max_cycle;Signal;HPM_P1;HPM_P2
2021/09/22 00:01:48;;;;;;;14.35;10.40;;;;;;;10.85;88.25;100621.53;5073359;28;20283;-73
2021/09/22 01:55:36;;;;;;;12.63;7.43;;;;;;;9.94;89.86;100599.25;4787972;28;20295;-74
2021/09/22 01:58:03;;;;;;;8.57;7.07;;;;;;;9.87;90.44;100595.03;5074833;28;20290;-74
2021/09/22 02:00:30;;;;;;;8.18;6.55;;;;;;;9.76;90.86;100585.56;5075005;28;20640;-74
2021/09/22 02:02:56;;;;;;;8.95;6.50;;;;;;;9.87;90.91;100589.66;5074248;28;20650;-74
2021/09/22 02:05:23;;;;;;;7.63;6.80;;;;;;;9.85;90.71;100600.47;5074598;28;20192;-74
2021/09/22 02:07:50;;;;;;;7.78;6.95;;;;;;;9.68;91.23;100597.56;5075031;28;20207;-74
2021/09/22 02:10:16;;;;;;;7.45;6.60;;;;;;;9.57;92.16;100595.31;5074736;28;20184;-74
2021/09/22 02:12:44;;;;;;;9.02;7.50;;;;;;;9.68;92.20;100601.16;5074374;28;20199;-74
2021/09/22 02:15:11;;;;;;;10.35;7.50;;;;;;;9.52;92.90;100594.56;5074263;28;20764;-73
2021/09/22 02:17:38;;;;;;;8.07;6.90;;;;;;;9.58;92.76;100600.59;5075146;28;20195;-73
2021/09/22 02:20:07;;;;;;;10.00;7.55;;;;;;;9.67;92.62;100594.00;5074544;28;20671;-74
2021/09/22 02:22:34;;;;;;;7.90;7.07;;;;;;;9.77;91.67;100597.22;5075137;28;20518;-72
2021/09/22 02:25:00;;;;;;;8.18;6.88;;;;;;;9.88;90.82;100594.09;5074565;28;20533;-74
2021/09/22 02:27:27;;;;;;;10.35;7.55;;;;;;;9.98;89.91;100593.69;5074383;28;20213;-74
2021/09/22 02:29:55;;;;;;;9.23;6.45;;;;;;;9.83;89.85;100594.28;5074487;28;20217;-72
2021/09/22 02:32:23;;;;;;;8.40;6.40;;;;;;;10.04;88.59;100597.97;5074034;28;20195;-73
2021/09/22 02:34:49;;;;;;;7.43;6.45;;;;;;;9.99;88.86;100589.16;5074215;28;20223;-73
2021/09/22 02:37:16;;;;;;;8.65;6.75;;;;;;;10.07;88.42;100584.38;5074279;28;20516;-74
2021/09/22 02:39:43;;;;;;;7.35;5.93;;;;;;;10.10;87.78;100576.16;5073948;28;20208;-73
2021/09/22 02:42:10;;;;;;;8.85;6.00;;;;;;;10.18;87.32;100567.78;5074731;28;20282;-73
2021/09/22 02:44:36;;;;;;;6.88;6.18;;;;;;;10.20;86.81;100572.16;5074109;28;20255;-74
2021/09/22 02:47:04;;;;;;;12.20;7.63;;;;;;;10.12;87.01;100574.28;5074272;28;20213;-74
2021/09/22 02:49:31;;;;;;;8.32;7.00;;;;;;;10.02;87.57;100572.91;5073975;28;20290;-74
2021/09/22 02:51:58;;;;;;;9.15;6.60;;;;;;;10.00;87.95;100569.41;5074331;28;20219;-73
2021/09/22 02:54:24;;;;;;;8.32;6.72;;;;;;;9.83;88.65;100580.81;5073477;28;20238;-74
2021/09/22 02:56:51;;;;;;;10.80;6.95;;;;;;;9.64;90.07;100583.38;5073864;28;20183;-74
2021/09/22 02:59:17;;;;;;;7.10;5.65;;;;;;;9.68;90.48;100578.72;5073910;28;20194;-74
2021/09/22 03:01:44;;;;;;;6.93;6.22;;;;;;;9.75;89.87;100577.59;5073603;28;20191;-74
2021/09/22 03:04:12;;;;;;;6.20;5.60;;;;;;;9.78;89.34;100585.53;5073671;28;20194;-74
2021/09/22 03:06:39;;;;;;;7.25;6.53;;;;;;;9.82;89.40;100588.03;5073869;28;20200;-74
2021/09/22 03:09:05;;;;;;;10.07;7.43;;;;;;;9.86;89.06;100582.50;5073467;28;20294;-74
2021/09/22 03:11:32;;;;;;;7.95;6.13;;;;;;;9.92;88.43;100579.59;5073830;28;20191;-74
2021/09/22 03:13:59;;;;;;;8.55;7.10;;;;;;;9.90;88.31;100576.94;5073091;28;20306;-74
2021/09/22 03:16:25;;;;;;;9.27;7.20;;;;;;;9.69;89.30;100581.38;5073799;28;20220;-73
2021/09/22 03:18:52;;;;;;;7.60;6.60;;;;;;;9.84;89.17;100574.53;5073705;28;20523;-74
2021/09/22 03:21:20;;;;;;;7.85;6.88;;;;;;;9.74;88.92;100571.31;5073995;28;20203;-73
2021/09/22 03:23:46;;;;;;;7.15;6.10;;;;;;;9.77;89.14;100573.03;5073348;28;20188;-75
2021/09/22 03:26:13;;;;;;;7.15;6.35;;;;;;;9.79;88.54;100565.75;5073985;28;20188;-74
2021/09/22 03:28:40;;;;;;;9.43;6.45;;;;;;;9.85;88.41;100565.50;5073372;28;20291;-72
2021/09/22 03:31:06;;;;;;;9.48;6.55;;;;;;;9.86;88.38;100555.63;5073351;28;20192;-72
2021/09/22 03:33:33;;;;;;;8.43;6.30;;;;;;;9.67;88.87;100561.72;5073568;28;20211;-74
2021/09/22 03:35:59;;;;;;;8.38;6.95;;;;;;;9.88;87.93;100553.75;5073574;28;20716;-74
2021/09/22 03:38:28;;;;;;;6.82;5.65;;;;;;;10.02;87.44;100548.72;5074054;28;20187;-74
2021/09/22 03:40:55;;;;;;;7.32;5.43;;;;;;;9.88;87.33;100557.34;5073548;28;20275;-73
2021/09/22 03:43:21;;;;;;;11.38;6.85;;;;;;;9.91;87.35;100559.03;5073907;28;20202;-73
2021/09/22 03:45:48;;;;;;;10.05;6.82;;;;;;;9.98;87.33;100560.53;5072922;28;20195;-74
2021/09/22 03:48:15;;;;;;;6.95;6.22;;;;;;;10.02;86.73;100557.66;5073108;28;20184;-74
2021/09/22 03:50:42;;;;;;;9.60;6.93;;;;;;;9.94;87.21;100564.28;5073332;28;20236;-73
2021/09/22 03:53:09;;;;;;;7.53;6.00;;;;;;;9.87;87.63;100557.38;5074042;28;20283;-74
2021/09/22 03:55:37;;;;;;;9.35;7.10;;;;;;;9.61;89.12;100556.59;5072958;28;20263;-74
2021/09/22 03:58:04;;;;;;;9.73;6.72;;;;;;;9.63;89.78;100564.59;5072735;28;20279;-74
2021/09/22 04:00:30;;;;;;;7.43;5.80;;;;;;;9.42;90.52;100569.88;5073326;28;20227;-74
2021/09/22 04:02:57;;;;;;;8.63;6.88;;;;;;;9.45;91.60;100574.25;5073850;28;20226;-74
2021/09/22 04:05:24;;;;;;;7.65;6.13;;;;;;;9.38;91.22;100577.19;5073029;28;20275;-74
2021/09/22 04:07:50;;;;;;;8.80;7.18;;;;;;;9.43;91.31;100570.72;5072953;28;20187;-73
2021/09/22 04:10:17;;;;;;;8.75;7.03;;;;;;;9.23;92.31;100561.63;5074325;28;20209;-73
2021/09/22 04:12:45;;;;;;;8.38;6.50;;;;;;;9.21;92.80;100562.63;5077204;28;20187;-73
2021/09/22 04:15:12;;;;;;;8.95;6.30;;;;;;;9.13;93.95;100565.56;5077533;28;20631;-73
2021/09/22 04:17:38;;;;;;;8.02;6.70;;;;;;;9.11;94.04;100571.03;5076834;28;20229;-73
2021/09/22 04:20:08;;;;;;;9.00;6.80;;;;;;;9.15;94.16;100578.00;5076872;28;20597;-73
2021/09/22 04:22:35;;;;;;;10.43;6.75;;;;;;;9.16;94.59;100573.53;5076743;28;20187;-74
2021/09/22 04:25:01;;;;;;;7.82;6.22;;;;;;;9.05;94.34;100571.25;5076700;28;20670;-73
2021/09/22 04:27:28;;;;;;;13.05;6.68;;;;;;;9.26;93.70;100569.56;5075529;28;20298;-73
2021/09/22 04:29:56;;;;;;;8.02;6.50;;;;;;;9.26;93.49;100572.25;5076546;28;20307;-74
2021/09/22 04:32:23;;;;;;;11.18;7.80;;;;;;;9.26;93.08;100572.25;5075008;28;20290;-73
2021/09/22 04:34:49;;;;;;;8.32;6.25;;;;;;;9.27;93.06;100571.34;5076518;28;20229;-73
2021/09/22 04:37:16;;;;;;;8.35;6.22;;;;;;;9.38;92.41;100573.59;5076445;28;20224;-73
2021/09/22 04:39:43;;;;;;;9.45;6.75;;;;;;;9.48;91.48;100563.41;5076154;28;20552;-73
2021/09/22 04:42:09;;;;;;;8.70;6.15;;;;;;;9.44;91.02;100575.19;5076429;28;20188;-73
2021/09/22 04:44:36;;;;;;;10.13;6.90;;;;;;;9.47;91.34;100578.63;5076274;28;20184;-72
2021/09/22 04:47:05;;;;;;;9.45;7.25;;;;;;;9.54;90.49;100571.19;5076238;28;20208;-74
2021/09/22 04:49:32;;;;;;;7.20;6.25;;;;;;;9.71;88.73;100571.44;5076240;28;20193;-74
2021/09/22 04:51:59;;;;;;;7.43;6.43;;;;;;;9.67;88.90;100571.63;5075913;28;20191;-74
2021/09/22 04:54:25;;;;;;;10.68;6.40;;;;;;;9.76;88.71;100572.13;5075161;28;20354;-74
2021/09/22 04:56:52;;;;;;;10.43;6.63;;;;;;;9.64;88.22;100577.13;5074421;28;20647;-74
2021/09/22 04:59:18;;;;;;;10.57;8.43;;;;;;;9.77;87.82;100579.28;5075725;28;20554;-74
2021/09/22 05:01:47;;;;;;;8.52;6.50;;;;;;;9.77;87.76;100579.28;5075775;28;20192;-73
2021/09/22 05:04:15;;;;;;;11.38;6.78;;;;;;;9.92;87.39;100587.66;5075872;28;20283;-73
2021/09/22 05:06:41;;;;;;;7.18;6.00;;;;;;;9.79;87.51;100572.03;5075721;28;20193;-74
2021/09/22 05:09:08;;;;;;;7.28;6.40;;;;;;;9.67;87.76;100580.56;5075227;28;20205;-73
2021/09/22 05:11:36;;;;;;;10.00;7.50;;;;;;;9.84;87.21;100584.41;5074204;28;20984;-73
2021/09/22 05:14:02;;;;;;;8.90;6.82;;;;;;;9.64;87.62;100578.00;5075500;28;20216;-73
2021/09/22 05:16:29;;;;;;;9.23;7.28;;;;;;;9.50;88.75;100583.03;5075523;28;20220;-73
2021/09/22 05:18:55;;;;;;;8.20;6.40;;;;;;;9.28;90.25;100583.81;5075213;28;20685;-73
2021/09/22 05:21:23;;;;;;;8.15;6.65;;;;;;;9.25;91.05;100583.94;5074755;28;20184;-73
2021/09/22 05:23:50;;;;;;;12.82;8.07;;;;;;;9.02;92.79;100584.75;5075937;28;20200;-74
2021/09/22 05:26:17;;;;;;;10.20;7.30;;;;;;;9.11;92.51;100581.78;5075086;28;20275;-73
2021/09/22 05:28:43;;;;;;;9.82;6.55;;;;;;;9.11;92.31;100584.47;5074994;28;20615;-75
2021/09/22 05:31:10;;;;;;;10.50;6.60;;;;;;;9.24;92.50;100590.25;5074895;28;20290;-73
2021/09/22 05:33:36;;;;;;;10.23;7.70;;;;;;;9.34;91.72;100588.97;5075459;28;20608;-73
2021/09/22 05:36:04;;;;;;;8.55;7.13;;;;;;;9.31;90.68;100593.56;5075022;28;20539;-74
2021/09/22 05:38:32;;;;;;;10.40;7.97;;;;;;;9.41;90.84;100592.31;5074457;28;20311;-75
2021/09/22 05:40:58;;;;;;;9.55;8.43;;;;;;;9.57;89.91;100589.94;5074693;28;20195;-73
2021/09/22 05:43:25;;;;;;;10.75;5.57;;;;;;;9.56;89.63;100585.47;5074509;28;20706;-73
2021/09/22 05:45:52;;;;;;;11.50;7.30;;;;;;;9.54;89.22;100590.03;5074277;28;20235;-73
2021/09/22 05:48:18;;;;;;;10.45;8.88;;;;;;;9.70;88.67;100593.00;5074712;28;20242;-74
2021/09/22 05:50:45;;;;;;;9.07;7.20;;;;;;;9.82;87.44;100589.84;5074902;28;20214;-74
2021/09/22 05:53:12;;;;;;;13.35;9.05;;;;;;;9.77;87.16;100591.84;5074462;28;20208;-74
2021/09/22 05:55:40;;;;;;;15.45;7.22;;;;;;;9.79;86.95;100589.94;5074460;28;20275;-74
2021/09/22 05:58:06;;;;;;;8.35;7.53;;;;;;;9.74;86.94;100582.06;5074725;28;20264;-74
2021/09/22 06:00:33;;;;;;;8.73;7.55;;;;;;;9.87;86.75;100574.41;5074330;28;20192;-74
2021/09/22 06:03:07;;;;;;;7.68;6.75;;;;;;;9.74;87.07;100574.00;5074958;28;20216;-74
2021/09/22 06:05:33;;;;;;;12.27;11.18;;;;;;;9.97;86.09;100564.13;5073970;28;20195;-74
2021/09/22 06:08:00;;;;;;;9.30;7.28;;;;;;;9.76;86.60;100568.56;5073441;28;20196;-74
2021/09/22 06:10:27;;;;;;;9.77;7.25;;;;;;;9.96;85.82;100559.72;5074651;28;20191;-74
2021/09/22 06:12:55;;;;;;;9.57;6.97;;;;;;;10.02;85.44;100563.03;5073599;28;20290;-74
2021/09/22 06:15:21;;;;;;;9.75;7.20;;;;;;;10.10;84.69;100567.22;5073823;28;20262;-74
2021/09/22 06:17:48;;;;;;;11.48;8.10;;;;;;;10.14;84.59;100560.78;5073686;28;20538;-74
2021/09/22 06:20:14;;;;;;;11.00;8.07;;;;;;;10.29;83.95;100560.19;5069855;28;20203;-74
2021/09/22 06:22:41;;;;;;;12.20;7.03;;;;;;;10.31;83.36;100565.47;5074229;28;20191;-74
2021/09/22 06:25:09;;;;;;;8.05;6.72;;;;;;;10.26;83.53;100565.63;5074891;28;20183;-73
2021/09/22 06:27:35;;;;;;;7.95;7.15;;;;;;;10.27;83.69;100562.03;5073278;28;20283;-74
2021/09/22 06:30:04;;;;;;;9.73;7.20;;;;;;;10.40;83.06;100566.00;5074378;28;20658;-74
2021/09/22 06:32:30;;;;;;;10.18;7.40;;;;;;;10.43;82.25;100570.38;5073030;28;20202;-73
2021/09/22 06:34:57;;;;;;;13.15;8.48;;;;;;;10.61;81.78;100561.50;5073767;28;20390;-74
2021/09/22 06:37:24;;;;;;;10.73;7.07;;;;;;;10.64;81.18;100568.56;5073714;28;20272;-73
2021/09/22 06:39:51;;;;;;;14.30;9.68;;;;;;;10.64;80.93;100565.88;5074152;28;20189;-73
2021/09/22 06:42:17;;;;;;;11.80;8.80;;;;;;;10.55;81.21;100567.13;5073877;28;20201;-73
2021/09/22 06:44:44;;;;;;;9.80;7.60;;;;;;;10.45;81.83;100576.56;5074069;28;20615;-73
2021/09/22 06:47:12;;;;;;;10.73;8.13;;;;;;;10.57;81.76;100573.34;5073359;28;20223;-73
2021/09/22 06:49:39;;;;;;;10.25;8.50;;;;;;;10.61;81.38;100579.47;5073973;28;20582;-74
2021/09/22 06:52:05;;;;;;;9.40;7.22;;;;;;;10.49;81.79;100580.88;5073875;28;20295;-74
2021/09/22 06:54:33;;;;;;;14.73;8.90;;;;;;;10.49;82.33;100578.19;5072654;28;20252;-73
2021/09/22 06:57:00;;;;;;;7.60;6.60;;;;;;;10.36;82.46;100572.44;5072539;28;20245;-74
2021/09/22 06:59:27;;;;;;;10.30;7.32;;;;;;;10.70;81.90;100573.69;5073521;28;20203;-73
2021/09/22 07:01:53;;;;;;;8.98;6.60;;;;;;;10.78;80.79;100571.53;5073507;28;20195;-73
2021/09/22 07:04:21;;;;;;;11.40;7.40;;;;;;;11.03;80.12;100567.75;5073312;28;20216;-73
2021/09/22 07:06:48;;;;;;;7.90;6.93;;;;;;;11.01;79.32;100565.16;5073659;28;20563;-74
2021/09/22 07:09:15;;;;;;;9.43;6.30;;;;;;;11.18;78.70;100560.81;5073510;28;20282;-74
2021/09/22 07:11:41;;;;;;;8.35;7.22;;;;;;;11.21;78.56;100571.44;5073621;28;20192;-74
2021/09/22 07:14:08;;;;;;;9.55;6.85;;;;;;;11.47;77.46;100571.13;5073207;28;20284;-73
2021/09/22 07:16:34;;;;;;;8.27;6.15;;;;;;;11.42;77.03;100570.50;5073750;28;20742;-73
2021/09/22 07:19:01;;;;;;;6.82;6.10;;;;;;;11.63;76.05;100573.13;5073088;28;20630;-72
2021/09/22 07:21:29;;;;;;;9.73;6.43;;;;;;;11.83;75.29;100581.16;5072450;28;20193;-73
2021/09/22 07:23:57;;;;;;;6.63;5.93;;;;;;;11.86;74.51;100586.38;5073081;28;20211;-74
2021/09/22 07:26:23;;;;;;;11.55;6.13;;;;;;;11.85;74.30;100581.97;5073822;28;20295;-73
2021/09/22 07:28:50;;;;;;;8.45;5.82;;;;;;;12.11;73.16;100587.94;5073618;28;20292;-74
2021/09/22 07:31:17;;;;;;;6.35;5.70;;;;;;;12.30;71.92;100585.19;5072831;28;20673;-74
2021/09/22 07:33:44;;;;;;;9.10;7.40;;;;;;;12.49;71.14;100586.03;5073189;28;20272;-74
2021/09/22 07:36:11;;;;;;;7.22;5.47;;;;;;;12.64;70.42;100584.41;5072935;28;20215;-74
2021/09/22 07:38:39;;;;;;;7.85;5.85;;;;;;;12.77;70.07;100590.03;5073347;28;20651;-74
2021/09/22 07:41:07;;;;;;;6.50;5.65;;;;;;;12.80;69.36;100589.91;5072611;28;20621;-73
2021/09/22 07:43:34;;;;;;;10.38;6.80;;;;;;;12.94;69.47;100581.06;5073112;28;20209;-73
2021/09/22 07:46:01;;;;;;;6.70;5.43;;;;;;;12.95;68.63;100577.41;5076822;28;20276;-73
2021/09/22 07:48:28;;;;;;;6.82;5.03;;;;;;;12.98;68.02;100579.97;5077186;28;20191;-74
2021/09/22 07:50:55;;;;;;;7.18;5.13;;;;;;;13.13;67.83;100581.81;5076848;28;20193;-74
2021/09/22 07:53:22;;;;;;;7.50;5.45;;;;;;;13.19;67.93;100586.03;5076997;28;20291;-73
2021/09/22 07:55:50;;;;;;;7.70;5.55;;;;;;;13.35;67.18;100583.44;5076894;28;20299;-73
2021/09/22 07:58:18;;;;;;;5.13;4.60;;;;;;;13.25;66.79;100590.25;5077029;28;20206;-73
2021/09/22 08:00:44;;;;;;;6.60;4.70;;;;;;;13.22;67.12;100587.72;5077069;28;20190;-73
2021/09/22 08:03:11;;;;;;;7.25;5.70;;;;;;;13.29;67.00;100587.31;5076626;28;20277;-73
2021/09/22 08:05:39;;;;;;;6.40;5.25;;;;;;;13.62;66.06;100586.47;5076673;28;20690;-73
2021/09/22 08:08:06;;;;;;;9.02;5.22;;;;;;;13.96;65.07;100590.00;5076350;28;20235;-73
2021/09/22 08:10:33;;;;;;;6.13;5.50;;;;;;;14.11;63.80;100596.34;5076896;28;20205;-73
2021/09/22 08:13:02;;;;;;;5.85;4.65;;;;;;;14.23;62.89;100597.50;5076977;28;20213;-73
2021/09/22 08:15:29;;;;;;;9.75;5.43;;;;;;;14.33;62.69;100596.88;5076480;28;20224;-73
2021/09/22 08:17:56;;;;;;;6.00;5.45;;;;;;;14.55;62.18;100595.66;5076530;28;20186;-73
2021/09/22 08:20:23;;;;;;;6.53;5.28;;;;;;;14.63;61.86;100597.91;5076456;28;20295;-73
2021/09/22 08:22:50;;;;;;;7.20;5.78;;;;;;;14.74;61.60;100601.75;5076281;28;20242;-73
2021/09/22 08:25:17;;;;;;;4.78;4.38;;;;;;;14.71;60.93;100601.06;5076379;28;20195;-73
2021/09/22 08:27:43;;;;;;;7.43;4.93;;;;;;;14.74;60.82;100596.34;5076265;28;20199;-74
2021/09/22 08:30:13;;;;;;;8.73;4.60;;;;;;;14.83;60.49;100597.59;5076384;28;20210;-74
2021/09/22 08:32:39;;;;;;;5.68;4.88;;;;;;;14.82;60.35;100601.28;5075997;28;20224;-74
2021/09/22 08:35:07;;;;;;;9.05;5.45;;;;;;;14.83;60.43;100604.88;5076021;28;20231;-74
2021/09/22 08:37:34;;;;;;;7.85;5.45;;;;;;;14.98;59.86;100618.38;5075853;28;20223;-73
2021/09/22 08:40:00;;;;;;;9.10;5.50;;;;;;;15.05;59.44;100605.31;5076244;28;20207;-73
2021/09/22 08:42:27;;;;;;;6.65;5.45;;;;;;;15.15;59.19;100602.91;5076077;28;20282;-73
2021/09/22 08:44:54;;;;;;;6.35;4.75;;;;;;;15.32;58.56;100605.47;5075738;28;20391;-74
2021/09/22 08:47:22;;;;;;;6.95;5.20;;;;;;;15.47;58.18;100608.19;5075754;28;20192;-73
2021/09/22 08:49:49;;;;;;;6.55;5.63;;;;;;;15.43;57.83;100599.38;5075675;28;20193;-74
2021/09/22 08:52:16;;;;;;;6.35;4.75;;;;;;;15.40;57.57;100610.44;5075879;28;20644;-74
2021/09/22 08:54:42;;;;;;;8.98;5.70;;;;;;;15.30;58.29;100612.81;5075388;28;20235;-74
2021/09/22 08:57:09;;;;;;;7.38;5.68;;;;;;;15.52;57.75;100615.09;5074979;28;20208;-74
2021/09/22 08:59:35;;;;;;;7.78;5.20;;;;;;;15.64;57.12;100621.56;5075404;28;20291;-72
2021/09/22 09:02:09;;;;;;;13.90;5.82;;;;;;;15.85;56.58;100616.66;5075302;28;20291;-74
2021/09/22 09:04:38;;;;;;;6.32;4.93;;;;;;;15.76;56.82;100619.94;5075416;28;20215;-74
2021/09/22 09:07:06;;;;;;;6.55;4.78;;;;;;;15.96;56.20;100611.41;5070122;28;20212;-73
2021/09/22 09:09:34;;;;;;;6.75;5.47;;;;;;;16.27;55.23;100613.00;5075649;28;20654;-73
2021/09/22 09:12:01;;;;;;;8.68;7.32;;;;;;;16.19;55.83;100612.66;5075438;28;20212;-74
2021/09/22 09:14:34;;;;;;;8.80;4.95;;;;;;;16.07;55.93;100610.72;5075377;28;20195;-73
2021/09/22 09:17:09;;;;;;;7.93;5.85;;;;;;;16.22;55.25;100612.44;5074440;28;20205;-74
2021/09/22 09:19:44;;;;;;;7.40;5.20;;;;;;;16.61;53.91;100604.44;5074979;28;20275;-74
2021/09/22 09:22:11;;;;;;;5.80;4.47;;;;;;;16.85;53.20;100602.81;5074582;28;20188;-75
2021/09/22 09:24:40;;;;;;;7.35;4.97;;;;;;;16.84;53.45;100605.63;5074712;28;20199;-74
2021/09/22 09:27:11;;;;;;;5.75;4.57;;;;;;;16.96;53.27;100603.91;5075576;28;20219;-74
2021/09/22 09:29:38;;;;;;;7.60;4.60;;;;;;;17.01;52.75;100607.22;5075307;28;20272;-74
2021/09/22 09:32:15;;;;;;;11.45;7.47;;;;;;;17.12;52.71;100604.63;5073883;28;20204;-74
2021/09/22 09:37:37;;;;;;;6.55;5.60;;;;;;;17.47;51.62;100604.84;5090756;27;21045;-73
2021/09/22 09:40:26;;;;;;;6.72;5.00;;;;;;;17.46;51.43;100600.38;5089800;28;20294;-74
2021/09/22 09:42:55;;;;;;;4.97;4.47;;;;;;;17.68;51.22;100591.56;5090050;28;20203;-73
2021/09/22 09:45:24;;;;;;;7.15;5.38;;;;;;;17.78;51.23;100594.47;5090307;28;20191;-73
2021/09/22 09:48:08;;;;;;;6.18;5.03;;;;;;;18.06;50.39;100589.78;5090474;28;20294;-73
2021/09/22 09:50:40;;;;;;;7.10;6.43;;;;;;;18.11;50.00;100584.84;5090361;28;20191;-73
2021/09/22 09:53:22;;;;;;;6.38;5.05;;;;;;;17.95;50.78;100587.81;5091267;28;20236;-73
2021/09/22 09:55:48;;;;;;;6.32;4.68;;;;;;;18.02;50.32;100582.78;5089544;28;20220;-73
2021/09/22 09:58:15;;;;;;;6.35;4.63;;;;;;;18.12;50.19;100578.44;5090209;28;20203;-72
2021/09/22 10:00:47;;;;;;;5.45;4.63;;;;;;;18.18;49.75;100582.53;5090234;28;20287;-74
2021/09/22 10:03:19;;;;;;;6.43;5.22;;;;;;;18.36;49.62;100581.19;5090159;28;20208;-74
2021/09/22 10:05:47;;;;;;;4.45;4.05;;;;;;;18.42;48.84;100572.53;5090089;28;20278;-72
2021/09/22 10:08:16;;;;;;;4.72;4.20;;;;;;;18.60;48.67;100574.84;5089920;28;20295;-73
2021/09/22 10:10:44;;;;;;;5.00;4.50;;;;;;;18.84;47.79;100577.59;5090012;28;20286;-74
2021/09/22 10:13:12;;;;;;;5.22;4.22;;;;;;;18.59;48.41;100571.25;5090449;28;20516;-74
2021/09/22 10:15:40;;;;;;;5.00;4.50;;;;;;;18.85;47.96;100558.34;5089831;28;20306;-74
2021/09/22 10:18:08;;;;;;;5.68;5.18;;;;;;;18.90;48.16;100553.44;5089634;28;20339;-74
2021/09/22 10:20:37;;;;;;;6.78;6.13;;;;;;;19.03;48.05;100561.50;5090408;28;20588;-73
2021/09/22 10:23:03;;;;;;;4.72;4.32;;;;;;;18.94;47.93;100552.19;5089606;28;20208;-73
2021/09/22 10:25:32;;;;;;;9.00;5.32;;;;;;;19.07;47.78;100551.22;5090183;28;20186;-73
2021/09/22 10:27:59;;;;;;;4.18;3.88;;;;;;;18.84;47.74;100547.59;5089624;28;20212;-73
2021/09/22 10:30:34;;;;;;;4.97;4.20;;;;;;;18.65;48.40;100548.06;5089487;28;20701;-74
2021/09/22 10:33:01;;;;;;;4.55;3.70;;;;;;;18.91;48.43;100555.16;5089793;28;20184;-74
2021/09/22 10:35:36;;;;;;;4.78;3.65;;;;;;;19.10;46.62;100537.34;5089037;28;20237;-73
2021/09/22 10:38:39;;;;;;;5.07;4.57;;;;;;;19.24;46.07;100534.38;5089613;28;20192;-74
2021/09/22 10:41:08;;;;;;;7.88;5.07;;;;;;;19.53;45.77;100542.09;5089927;28;20213;-73
2021/09/22 10:43:39;;;;;;;4.72;4.22;;;;;;;19.68;45.34;100537.25;5089732;28;20278;-74
2021/09/22 10:46:17;;;;;;;3.70;3.25;;;;;;;19.70;45.22;100538.03;5089720;28;20247;-74
2021/09/22 10:49:02;;;;;;;4.40;3.85;;;;;;;19.72;44.80;100536.06;5076810;28;20196;-74
2021/09/22 10:51:31;;;;;;;10.43;5.00;;;;;;;20.08;43.91;100534.88;5076032;28;20231;-75
2021/09/22 10:54:10;;;;;;;7.53;3.80;;;;;;;20.16;43.15;100526.03;5075751;28;20295;-74
2021/09/22 10:56:50;;;;;;;6.30;5.68;;;;;;;20.42;42.93;100526.59;5075517;28;20199;-73
2021/09/22 10:59:32;;;;;;;5.28;3.50;;;;;;;20.36;42.68;100522.47;5075543;28;20186;-73
2021/09/22 11:02:00;;;;;;;10.75;7.28;;;;;;;20.19;43.38;100512.97;5075360;28;20230;-73
2021/09/22 11:04:27;;;;;;;5.43;3.60;;;;;;;20.56;42.92;100518.09;5075042;28;20188;-73
2021/09/22 11:06:58;;;;;;;6.95;3.70;;;;;;;20.80;42.81;100509.66;5075938;28;20200;-74
2021/09/22 11:09:33;;;;;;;3.93;3.50;;;;;;;20.79;42.64;100507.03;5076043;28;20209;-73
2021/09/22 11:12:12;;;;;;;5.47;3.40;;;;;;;20.63;42.76;100502.00;5075752;28;20899;-73
2021/09/22 11:14:42;;;;;;;4.07;3.50;;;;;;;20.82;42.41;100504.03;5074482;28;20514;-74
2021/09/22 11:17:11;;;;;;;6.20;4.20;;;;;;;20.63;42.88;100503.88;5074310;28;20469;-72
2021/09/22 11:19:39;;;;;;;4.73;3.80;;;;;;;20.55;43.20;100491.69;5075503;28;20434;-74
2021/09/22 11:22:09;;;;;;;2.50;2.30;;;;;;;20.42;43.03;100485.56;5074853;28;20451;-72
2021/09/22 11:24:36;;;;;;;3.90;2.53;;;;;;;20.60;42.61;100484.00;5074764;28;20793;-72
2021/09/22 11:27:05;;;;;;;3.03;2.73;;;;;;;20.81;42.00;100486.75;5075144;28;20423;-72
2021/09/22 11:29:36;;;;;;;3.80;2.33;;;;;;;20.70;42.08;100483.19;5074889;28;20952;-74
2021/09/22 11:32:07;;;;;;;3.07;2.77;;;;;;;20.77;42.42;100485.25;5075587;28;20447;-72
2021/09/22 11:34:36;;;;;;;3.10;2.47;;;;;;;21.07;41.58;100490.94;5074913;28;20434;-72
2021/09/22 11:37:11;;;;;;;2.60;2.40;;;;;;;21.14;41.47;100492.13;5071728;28;20623;-73
2021/09/22 11:39:39;;;;;;;3.33;2.90;;;;;;;21.04;41.21;100490.19;5072520;28;20448;-73
2021/09/22 11:42:07;;;;;;;3.23;3.03;;;;;;;21.16;41.37;100484.63;5073434;28;20951;-73
2021/09/22 11:44:37;;;;;;;5.03;2.50;;;;;;;21.35;41.25;100487.47;5072976;28;20443;-73
2021/09/22 11:47:06;;;;;;;3.30;2.57;;;;;;;21.29;41.45;100493.50;5071675;28;20492;-73
2021/09/22 11:49:35;;;;;;;6.23;3.43;;;;;;;21.13;41.81;100495.88;5073656;28;20500;-72
2021/09/22 11:52:15;;;;;;;8.47;4.60;;;;;;;21.14;42.13;100484.78;5074581;28;20866;-73
2021/09/22 11:54:47;;;;;;;4.60;2.77;;;;;;;20.89;42.11;100474.25;5074385;28;20522;-74
2021/09/22 11:57:16;;;;;;;3.60;2.67;;;;;;;20.55;43.32;100472.53;5073851;28;20916;-73
2021/09/22 11:59:47;;;;;;;3.87;2.67;;;;;;;20.80;42.49;100471.31;5072662;28;20442;-73
2021/09/22 12:02:15;;;;;;;3.33;2.90;;;;;;;21.16;41.79;100471.81;5073927;28;20873;-73
2021/09/22 12:04:44;;;;;;;4.00;2.90;;;;;;;21.03;41.90;100463.81;5074408;28;20434;-73
2021/09/22 12:07:12;;;;;;;3.97;2.57;;;;;;;20.89;42.07;100464.16;5073874;28;20477;-73
2021/09/22 12:09:41;;;;;;;4.60;2.60;;;;;;;20.94;41.93;100463.75;5073425;28;20519;-73
2021/09/22 12:12:16;;;;;;;3.03;2.40;;;;;;;21.20;41.68;100459.56;5073870;28;20557;-73
2021/09/22 12:14:49;;;;;;;3.07;2.60;;;;;;;21.30;41.26;100459.66;5072670;28;20488;-73
2021/09/22 12:17:18;;;;;;;5.10;2.97;;;;;;;21.27;41.12;100451.69;5068450;28;20479;-73
2021/09/22 12:19:45;;;;;;;2.83;2.53;;;;;;;21.44;41.50;100455.69;5072526;28;20793;-73
2021/09/22 12:22:13;;;;;;;2.40;2.20;;;;;;;21.07;42.29;100453.44;5072023;28;20562;-72
2021/09/22 12:24:45;;;;;;;2.37;2.17;;;;;;;21.14;42.07;100451.94;5071258;28;20439;-73
2021/09/22 12:27:14;;;;;;;3.40;2.33;;;;;;;20.93;42.27;100441.00;5072951;28;20462;-74
2021/09/22 12:29:53;;;;;;;6.67;3.30;;;;;;;20.76;42.64;100441.63;5072455;28;20526;-74
2021/09/22 12:32:20;;;;;;;3.80;3.13;;;;;;;20.64;43.28;100429.00;5070975;28;20515;-74
2021/09/22 12:34:47;;;;;;;3.10;2.77;;;;;;;20.72;42.52;100431.94;5072646;28;20981;-73
2021/09/22 12:37:16;;;;;;;3.90;2.97;;;;;;;20.57;43.03;100432.25;5070632;28;20495;-73
2021/09/22 12:39:57;;;;;;;3.50;2.80;;;;;;;20.57;43.20;100431.41;5073239;28;20545;-73
2021/09/22 12:42:26;;;;;;;3.37;3.00;;;;;;;20.55;43.26;100428.75;5073227;28;20425;-74
2021/09/22 12:45:01;;;;;;;7.20;2.90;;;;;;;20.34;43.73;100420.56;5073497;28;20416;-73
2021/09/22 12:47:29;;;;;;;2.30;2.10;;;;;;;20.70;43.35;100417.53;5073391;28;20912;-73
2021/09/22 12:50:16;;;;;;;12.83;11.77;;;;;;;21.18;42.84;100414.16;5072814;28;20445;-74
2021/09/22 12:52:44;;;;;;;3.80;2.50;;;;;;;21.17;42.63;100406.97;5073284;28;20458;-74
2021/09/22 12:55:27;;;;;;;2.60;2.40;;;;;;;21.27;42.58;100404.25;5073367;28;20450;-74
2021/09/22 12:57:59;;;;;;;2.97;2.70;;;;;;;21.39;42.24;100387.59;5073248;28;20483;-74
2021/09/22 13:00:34;;;;;;;4.03;2.80;;;;;;;21.78;41.92;100389.59;5072916;28;20497;-73
2021/09/22 13:03:25;;;;;;;2.90;2.57;;;;;;;21.96;41.75;100395.22;5073098;28;20422;-74
2021/09/22 13:05:54;;;;;;;2.90;2.50;;;;;;;21.82;41.38;100380.94;5073394;28;20833;-74
2021/09/22 13:08:23;;;;;;;2.80;2.47;;;;;;;21.99;41.24;100383.97;5072721;28;20457;-74
2021/09/22 13:11:05;;;;;;;7.70;3.00;;;;;;;22.27;41.04;100379.50;5072637;28;20427;-74
2021/09/22 13:13:37;;;;;;;4.07;2.77;;;;;;;22.44;40.38;100381.50;5073012;28;20443;-73
2021/09/22 13:16:13;;;;;;;4.23;2.60;;;;;;;22.12;40.87;100370.84;5073076;28;20944;-73
2021/09/22 13:18:40;;;;;;;3.50;3.20;;;;;;;22.36;41.02;100375.88;5073591;28;20508;-73
2021/09/22 13:21:07;;;;;;;4.67;3.07;;;;;;;23.04;39.77;100366.63;5073245;28;20442;-74
2021/09/22 13:23:34;;;;;;;2.80;2.47;;;;;;;22.64;39.42;100365.88;5072945;28;20451;-74
2021/09/22 13:26:01;;;;;;;5.53;3.03;;;;;;;22.61;40.06;100357.06;5072973;28;20438;-74
2021/09/22 13:28:28;;;;;;;2.00;1.80;;;;;;;22.50;40.42;100363.59;5073153;28;20872;-73